METAR Data
IDs: Format: Raw Decoded Include TAF

Data at: 0116 UTC 06 Dec 2019

METAR for:KDMW (Carroll Cnty Rgnl, MD, US)
Text:KDMW 060055Z AUTO 30005KT 10SM CLR 03/M04 A3009 RMK AO2
Temperature: 3.0°C ( 37°F)
Dewpoint: -4.0°C ( 25°F) [RH = 60%]
Pressure (altimeter):30.09 inches Hg (1019.0 mb)
Winds:from the WNW (300 degrees) at 6 MPH (5 knots; 2.6 m/s)
Visibility:10 or more sm (16+ km)
Ceiling:at least 12,000 feet AGL
Clouds:sky clear below 12,000 feet AGL
QC Flag:automated observation with no human augmentation